Weather at Chania International Airport

Public forecast

Using degrees Celsius for public forecast. Weather courtesy of forecast.io.

Current aviation weather report (METAR) for Chania International Airport

Retrieved 2021/03/06 12:20 UTC (2 hours ago):

LGSA 061220Z 00000KT CAVOK 21/12 Q1020

Aviation forecast (TAF) for Chania International Airport

Retrieved 2021/03/06 12:15 UTC (2 hours ago):

TAF LGSA 061100Z 0612/0712 09008KT 9999 FEW025 SCT080 BECMG 0709/0711 03012KT SCT025 BKN070 PROB40 TEMPO 0702/0712 5000 RA SCT020 BKN030